createdAt,value
2018-11-20T00:00:58.418Z,12.77
2018-11-20T00:01:58.437Z,12.65
2018-11-20T00:02:58.448Z,12.79
2018-11-20T00:03:58.465Z,12.71
2018-11-20T00:04:58.526Z,12.68
2018-11-20T00:05:58.501Z,12.68
2018-11-20T00:06:58.521Z,12.85
2018-11-20T00:07:58.537Z,12.79
2018-11-20T00:08:58.557Z,12.85
2018-11-20T00:09:58.573Z,12.82
2018-11-20T00:10:58.604Z,12.83
2018-11-20T00:11:58.605Z,12.78
2018-11-20T00:12:58.621Z,12.82
2018-11-20T00:13:58.637Z,12.78
2018-11-20T00:14:58.653Z,12.83
2018-11-20T00:15:58.673Z,12.87
2018-11-20T00:16:58.721Z,12.71
2018-11-20T00:17:58.713Z,12.82
2018-11-20T00:18:58.721Z,12.72
2018-11-20T00:19:58.741Z,12.83
2018-11-20T00:20:58.757Z,12.77
2018-11-20T00:21:58.775Z,12.77
2018-11-20T00:22:58.789Z,12.85
2018-11-20T00:23:58.815Z,12.82
2018-11-20T00:24:58.825Z,12.83
2018-11-20T00:25:58.844Z,12.79
2018-11-20T00:26:58.861Z,12.96
2018-11-20T00:27:58.881Z,12.82
2018-11-20T00:28:58.913Z,12.68
2018-11-20T00:29:58.909Z,12.74
2018-11-20T00:30:58.939Z,12.68
2018-11-20T00:31:58.945Z,12.77
2018-11-20T00:32:58.961Z,12.85
2018-11-20T00:33:58.985Z,12.93
2018-11-20T00:34:59.036Z,12.92
2018-11-20T00:35:59.011Z,12.96
2018-11-20T00:36:59.037Z,12.86
2018-11-20T00:37:59.048Z,12.87
2018-11-20T00:38:59.064Z,12.86
2018-11-20T00:39:59.089Z,12.96
2018-11-20T00:40:59.141Z,13.00
2018-11-20T00:41:59.117Z,13.07
2018-11-20T00:42:59.133Z,13.19
2018-11-20T00:43:59.153Z,13.12
2018-11-20T00:44:59.168Z,13.17
2018-11-20T00:45:59.189Z,13.15
2018-11-20T00:46:59.205Z,13.17
2018-11-20T00:47:59.221Z,13.26
2018-11-20T00:48:59.235Z,13.22
2018-11-20T00:49:59.261Z,13.33
2018-11-20T00:50:59.273Z,13.42
2018-11-20T00:51:59.285Z,13.38
2018-11-20T00:52:59.309Z,13.45
2018-11-20T00:53:59.324Z,13.48
2018-11-20T00:54:59.348Z,13.44
2018-11-20T00:55:59.353Z,13.48
2018-11-20T00:56:59.381Z,13.45
2018-11-20T00:57:59.389Z,13.48
2018-11-20T00:58:59.411Z,13.49
2018-11-20T00:59:59.421Z,13.52
2018-11-20T01:00:59.445Z,13.46
2018-11-20T01:01:59.457Z,13.57
2018-11-20T01:02:59.485Z,13.49
2018-11-20T01:03:59.505Z,13.42
2018-11-20T01:04:59.512Z,13.54
2018-11-20T01:05:59.529Z,13.51
2018-11-20T01:06:59.541Z,13.57
2018-11-20T01:07:59.559Z,13.71
2018-11-20T01:08:59.576Z,13.64
2018-11-20T01:09:59.640Z,13.66
2018-11-20T01:10:59.627Z,13.64
2018-11-20T01:11:59.633Z,13.70
2018-11-20T01:12:59.652Z,13.73
2018-11-20T01:13:59.668Z,13.71
2018-11-20T01:14:59.684Z,13.73
2018-11-20T01:15:59.753Z,13.71
2018-11-20T01:16:59.720Z,13.64
2018-11-20T01:17:59.733Z,13.75
2018-11-20T01:18:59.761Z,13.70
2018-11-20T01:19:59.788Z,13.67
2018-11-20T01:20:59.785Z,13.81
2018-11-20T01:21:59.840Z,13.66
2018-11-20T01:22:59.821Z,13.75
2018-11-20T01:23:59.830Z,13.85
2018-11-20T01:24:59.849Z,13.88
2018-11-20T01:25:59.865Z,13.89
2018-11-20T01:26:59.884Z,13.92
2018-11-20T01:27:59.929Z,13.97
2018-11-20T01:28:59.917Z,13.97
2018-11-20T01:29:59.940Z,13.95
2018-11-20T01:30:59.953Z,13.91
2018-11-20T01:31:59.969Z,13.96
2018-11-20T01:32:59.996Z,14.04
2018-11-20T01:34:00.030Z,14.04
2018-11-20T01:35:00.030Z,14.02
2018-11-20T01:36:00.040Z,14.04
2018-11-20T01:37:00.060Z,14.09
2018-11-20T01:38:00.073Z,14.10
2018-11-20T01:39:00.091Z,14.17
2018-11-20T01:40:00.136Z,14.04
2018-11-20T01:41:00.125Z,14.14
2018-11-20T01:42:00.146Z,14.17
2018-11-20T01:43:00.154Z,14.14
2018-11-20T01:44:00.182Z,14.06
2018-11-20T01:45:00.194Z,14.20
2018-11-20T01:46:00.213Z,14.20
2018-11-20T01:47:00.228Z,14.17
2018-11-20T01:48:00.245Z,14.14
2018-11-20T01:49:00.263Z,14.20
2018-11-20T01:50:00.282Z,14.22
2018-11-20T01:51:00.294Z,14.14
2018-11-20T01:52:00.310Z,14.18
2018-11-20T01:53:00.334Z,14.24
2018-11-20T01:54:00.365Z,14.12
2018-11-20T01:55:00.365Z,14.18
2018-11-20T01:56:00.383Z,14.17
2018-11-20T01:57:00.393Z,14.14
2018-11-20T01:58:00.414Z,14.03
2018-11-20T01:59:00.424Z,14.07
2018-11-20T02:00:00.445Z,13.99
2018-11-20T02:01:00.460Z,13.95
2018-11-20T02:02:00.481Z,13.96
2018-11-20T02:03:00.530Z,13.99
2018-11-20T02:04:00.557Z,13.96
2018-11-20T02:05:00.525Z,14.00
2018-11-20T02:06:00.554Z,13.99
2018-11-20T02:07:00.566Z,13.91
2018-11-20T02:08:00.586Z,13.95
2018-11-20T02:09:00.657Z,13.99
2018-11-20T02:10:00.622Z,13.87
2018-11-20T02:11:00.634Z,13.89
2018-11-20T02:12:00.650Z,13.81
2018-11-20T02:13:00.666Z,13.91
2018-11-20T02:14:00.686Z,13.82
2018-11-20T02:15:00.715Z,13.91
2018-11-20T02:16:00.722Z,13.96
2018-11-20T02:17:00.744Z,13.99
2018-11-20T02:18:00.750Z,13.96
2018-11-20T02:19:00.774Z,14.03
2018-11-20T02:20:00.783Z,14.07
2018-11-20T02:21:00.807Z,13.97
2018-11-20T02:22:00.815Z,14.04
2018-11-20T02:23:00.838Z,14.14
2018-11-20T02:24:00.866Z,14.20
2018-11-20T02:25:00.874Z,14.15
2018-11-20T02:26:00.882Z,14.20
2018-11-20T02:27:00.898Z,14.24
2018-11-20T02:28:00.925Z,14.25
2018-11-20T02:29:00.938Z,14.29
2018-11-20T02:30:00.953Z,14.18
2018-11-20T02:31:00.971Z,14.32
2018-11-20T02:32:01.037Z,14.27
2018-11-20T02:33:01.002Z,14.22
2018-11-20T02:34:01.026Z,14.32
2018-11-20T02:35:01.043Z,14.25
2018-11-20T02:36:01.066Z,14.21
2018-11-20T02:37:01.070Z,14.14
2018-11-20T02:38:01.092Z,14.21
2018-11-20T02:39:01.156Z,14.24
2018-11-20T02:40:01.129Z,14.21
2018-11-20T02:41:01.143Z,14.35
2018-11-20T02:42:01.162Z,14.27
2018-11-20T02:43:01.179Z,14.24
2018-11-20T02:44:01.200Z,14.35
2018-11-20T02:45:01.255Z,14.32
2018-11-20T02:46:01.226Z,14.21
2018-11-20T02:47:01.242Z,14.35
2018-11-20T02:48:01.267Z,14.21
2018-11-20T02:49:01.280Z,14.29
2018-11-20T02:50:01.301Z,14.33
2018-11-20T02:51:01.331Z,14.20
2018-11-20T02:52:01.338Z,14.25
2018-11-20T02:53:01.352Z,14.20
2018-11-20T02:54:01.364Z,14.18
2018-11-20T02:55:01.388Z,14.12
2018-11-20T02:56:01.399Z,14.20
2018-11-20T02:57:01.453Z,14.24
2018-11-20T02:58:01.431Z,14.15
2018-11-20T02:59:01.455Z,14.22
2018-11-20T03:00:01.476Z,14.15
2018-11-20T03:01:01.483Z,14.21
2018-11-20T03:02:01.503Z,14.21
2018-11-20T03:03:01.617Z,14.22
2018-11-20T03:04:01.536Z,14.32
2018-11-20T03:05:01.557Z,14.33
2018-11-20T03:06:01.567Z,14.24
2018-11-20T03:07:01.643Z,14.24
2018-11-20T03:08:01.604Z,14.35
2018-11-20T03:09:01.747Z,14.39
2018-11-20T03:10:01.639Z,14.35
2018-11-20T03:11:01.653Z,14.25
2018-11-20T03:12:01.671Z,14.39
2018-11-20T03:13:01.689Z,14.35
2018-11-20T03:14:01.702Z,14.33
2018-11-20T03:15:01.776Z,14.33
2018-11-20T03:16:01.748Z,14.39
2018-11-20T03:17:01.759Z,14.36
2018-11-20T03:18:01.771Z,14.27
2018-11-20T03:19:01.793Z,14.22
2018-11-20T03:20:01.811Z,14.29
2018-11-20T03:21:01.823Z,14.25
2018-11-20T03:22:01.847Z,14.22
2018-11-20T03:23:01.856Z,14.18
2018-11-20T03:24:01.876Z,14.28
2018-11-20T03:25:01.900Z,14.18
2018-11-20T03:26:01.911Z,14.15
2018-11-20T03:27:02.114Z,14.14
2018-11-20T03:28:01.937Z,14.17
2018-11-20T03:29:01.960Z,14.14
2018-11-20T03:30:01.973Z,14.14
2018-11-20T03:31:01.989Z,14.00
2018-11-20T03:32:02.012Z,14.02
2018-11-20T03:33:02.027Z,14.07
2018-11-20T03:34:02.037Z,13.97
2018-11-20T03:35:02.062Z,14.04
2018-11-20T03:36:02.136Z,13.99
2018-11-20T03:37:02.092Z,13.97
2018-11-20T03:38:02.111Z,13.97
2018-11-20T03:39:02.128Z,14.03
2018-11-20T03:40:02.147Z,13.92
2018-11-20T03:41:02.164Z,13.78
2018-11-20T03:42:02.175Z,13.85
2018-11-20T03:43:02.199Z,13.84
2018-11-20T03:44:02.211Z,13.84
2018-11-20T03:45:02.232Z,13.88
2018-11-20T03:46:02.240Z,13.85
2018-11-20T03:47:02.265Z,13.88
2018-11-20T03:48:02.391Z,13.82
2018-11-20T03:49:02.299Z,13.85
2018-11-20T03:50:02.429Z,13.84
2018-11-20T03:51:02.332Z,13.82
2018-11-20T03:52:02.357Z,13.89
2018-11-20T03:53:02.367Z,13.81
2018-11-20T03:54:02.380Z,13.75
2018-11-20T03:55:02.400Z,13.81
2018-11-20T03:56:02.477Z,13.71
2018-11-20T03:57:02.428Z,13.71
2018-11-20T03:58:02.454Z,13.75
2018-11-20T03:59:02.464Z,13.57
2018-11-20T04:00:02.481Z,13.66
2018-11-20T04:01:02.509Z,13.69
2018-11-20T04:02:02.511Z,13.66
2018-11-20T04:03:02.529Z,13.64
2018-11-20T04:04:02.551Z,13.64
2018-11-20T04:05:02.571Z,13.67
2018-11-20T04:06:02.579Z,13.67
2018-11-20T04:07:02.601Z,13.64
2018-11-20T04:08:02.625Z,13.64
2018-11-20T04:09:02.644Z,13.70
2018-11-20T04:10:02.649Z,13.67
2018-11-20T04:11:02.669Z,13.66
2018-11-20T04:12:02.691Z,13.60
2018-11-20T04:13:02.769Z,13.60
2018-11-20T04:14:02.720Z,13.55
2018-11-20T04:15:02.731Z,13.60
2018-11-20T04:16:02.759Z,13.55
2018-11-20T04:17:02.768Z,13.60
2018-11-20T04:18:02.887Z,13.46
2018-11-20T04:19:02.836Z,13.49
2018-11-20T04:20:02.819Z,13.48
2018-11-20T04:21:02.832Z,13.46
2018-11-20T04:22:02.852Z,13.44
2018-11-20T04:23:02.876Z,13.48
2018-11-20T04:24:02.892Z,13.44
2018-11-20T04:25:02.927Z,13.45
2018-11-20T04:26:02.913Z,13.44
2018-11-20T04:27:02.930Z,13.45
2018-11-20T04:28:02.952Z,13.42
2018-11-20T04:29:02.963Z,13.41
2018-11-20T04:30:02.983Z,13.32
2018-11-20T04:31:03.036Z,13.38
2018-11-20T04:32:03.016Z,13.33
2018-11-20T04:33:03.032Z,13.29
2018-11-20T04:34:03.052Z,13.28
2018-11-20T04:35:03.067Z,13.32
2018-11-20T04:36:03.080Z,13.26
2018-11-20T04:37:03.132Z,13.23
2018-11-20T04:38:03.116Z,13.28
2018-11-20T04:39:03.139Z,13.30
2018-11-20T04:40:03.152Z,13.29
2018-11-20T04:41:03.181Z,13.28
2018-11-20T04:42:03.184Z,13.29
2018-11-20T04:43:03.252Z,13.29
2018-11-20T04:44:03.220Z,13.32
2018-11-20T04:45:03.231Z,13.29
2018-11-20T04:46:03.255Z,13.30
2018-11-20T04:47:03.268Z,13.29
2018-11-20T04:48:03.284Z,13.28
2018-11-20T04:49:03.330Z,13.28
2018-11-20T04:50:03.375Z,13.22
2018-11-20T04:51:03.336Z,13.23
2018-11-20T04:52:03.363Z,13.30
2018-11-20T04:53:03.377Z,13.23
2018-11-20T04:54:03.391Z,13.23
2018-11-20T04:55:03.411Z,13.26
2018-11-20T04:56:03.416Z,13.22
2018-11-20T04:57:03.436Z,13.26
2018-11-20T04:58:03.457Z,13.23
2018-11-20T04:59:03.484Z,13.29
2018-11-20T05:00:03.484Z,13.29
2018-11-20T05:01:03.504Z,13.23
2018-11-20T05:02:03.522Z,13.30
2018-11-20T05:03:03.534Z,13.32
2018-11-20T05:04:03.558Z,13.29
2018-11-20T05:05:03.577Z,13.32
2018-11-20T05:06:03.606Z,13.32
2018-11-20T05:07:03.600Z,13.36
2018-11-20T05:08:03.616Z,13.33
2018-11-20T05:09:03.640Z,13.28
2018-11-20T05:10:03.660Z,13.30
2018-11-20T05:11:03.676Z,13.30
2018-11-20T05:12:03.713Z,13.22
2018-11-20T05:13:03.721Z,13.29
2018-11-20T05:14:03.719Z,13.25
2018-11-20T05:15:03.750Z,13.25
2018-11-20T05:16:03.805Z,13.28
2018-11-20T05:17:03.777Z,13.23
2018-11-20T05:18:03.785Z,13.20
2018-11-20T05:19:03.808Z,13.19
2018-11-20T05:20:03.823Z,13.28
2018-11-20T05:21:03.840Z,13.32
2018-11-20T05:22:03.856Z,13.26
2018-11-20T05:23:03.879Z,13.29
2018-11-20T05:24:03.916Z,13.32
2018-11-20T05:25:03.916Z,13.30
2018-11-20T05:26:03.921Z,13.30
2018-11-20T05:27:03.932Z,13.33
2018-11-20T05:28:04.152Z,13.29
2018-11-20T05:29:03.972Z,13.38
2018-11-20T05:30:03.995Z,13.17
2018-11-20T05:31:04.088Z,13.23
2018-11-20T05:32:04.020Z,13.29
2018-11-20T05:33:04.032Z,13.22
2018-11-20T05:34:04.057Z,13.29
2018-11-20T05:35:04.069Z,13.30
2018-11-20T05:36:04.152Z,13.30
2018-11-20T05:37:04.106Z,13.38
2018-11-20T05:38:04.120Z,13.38
2018-11-20T05:39:04.140Z,13.42
2018-11-20T05:40:04.152Z,13.42
2018-11-20T05:41:04.173Z,13.41
2018-11-20T05:42:04.212Z,13.42
2018-11-20T05:43:04.204Z,13.36
2018-11-20T05:44:04.227Z,13.39
2018-11-20T05:45:04.245Z,13.42
2018-11-20T05:46:04.257Z,13.44
2018-11-20T05:47:04.277Z,13.36
2018-11-20T05:48:04.285Z,13.41
2018-11-20T05:49:04.304Z,13.51
2018-11-20T05:50:04.325Z,13.51
2018-11-20T05:51:04.345Z,13.57
2018-11-20T05:52:04.351Z,13.59
2018-11-20T05:53:04.377Z,13.54
2018-11-20T05:54:04.398Z,13.55
2018-11-20T05:55:04.417Z,13.63
2018-11-20T05:56:04.440Z,13.57
2018-11-20T05:57:04.437Z,13.67
2018-11-20T05:58:04.556Z,13.59
2018-11-20T05:59:04.473Z,13.69
2018-11-20T06:00:04.483Z,13.57
2018-11-20T06:01:04.501Z,13.59
2018-11-20T06:02:04.520Z,13.67
2018-11-20T06:03:04.539Z,13.57
2018-11-20T06:04:04.560Z,13.59
2018-11-20T06:05:04.576Z,13.52
2018-11-20T06:06:04.621Z,13.54
2018-11-20T06:07:04.604Z,13.51
2018-11-20T06:08:04.628Z,13.55
2018-11-20T06:09:04.641Z,13.59
2018-11-20T06:10:04.653Z,13.46
2018-11-20T06:11:04.676Z,13.48
2018-11-20T06:12:04.689Z,13.54
2018-11-20T06:13:04.708Z,13.45
2018-11-20T06:14:04.725Z,13.41
2018-11-20T06:15:04.748Z,13.45
2018-11-20T06:16:04.836Z,13.41
2018-11-20T06:17:04.781Z,13.36
2018-11-20T06:18:04.792Z,13.30
2018-11-20T06:19:04.832Z,13.32
2018-11-20T06:20:04.824Z,13.33
2018-11-20T06:21:04.840Z,13.36
2018-11-20T06:22:04.905Z,13.29
2018-11-20T06:23:04.875Z,13.32
2018-11-20T06:24:04.888Z,13.25
2018-11-20T06:25:04.911Z,13.15
2018-11-20T06:26:04.932Z,13.10
2018-11-20T06:27:04.940Z,13.12
2018-11-20T06:28:04.984Z,13.10
2018-11-20T06:29:05.024Z,13.14
2018-11-20T06:30:04.993Z,13.11
2018-11-20T06:31:05.009Z,13.10
2018-11-20T06:32:05.025Z,13.12
2018-11-20T06:33:05.045Z,13.20
2018-11-20T06:34:05.121Z,13.26
2018-11-20T06:35:05.226Z,13.23
2018-11-20T06:36:05.092Z,13.30
2018-11-20T06:37:05.112Z,13.32
2018-11-20T06:38:05.121Z,13.29
2018-11-20T06:39:05.145Z,13.32
2018-11-20T06:40:05.185Z,13.36
2018-11-20T06:41:05.225Z,13.36
2018-11-20T06:42:05.196Z,13.41
2018-11-20T06:43:05.204Z,13.41
2018-11-20T06:44:05.220Z,13.45
2018-11-20T06:45:05.242Z,13.45
2018-11-20T06:46:05.293Z,13.48
2018-11-20T06:47:05.285Z,13.54
2018-11-20T06:48:05.294Z,13.60
2018-11-20T06:49:05.309Z,13.52
2018-11-20T06:50:05.332Z,13.57
2018-11-20T06:51:05.348Z,13.66
2018-11-20T06:52:05.408Z,13.70
2018-11-20T06:53:05.581Z,13.79
2018-11-20T06:54:05.394Z,13.66
2018-11-20T06:55:05.429Z,13.64
2018-11-20T06:56:05.424Z,13.71
2018-11-20T06:57:05.451Z,13.71
2018-11-20T06:58:05.499Z,13.70
2018-11-20T06:59:05.489Z,13.70
2018-11-20T07:00:05.490Z,13.67
2018-11-20T07:01:05.510Z,13.77
2018-11-20T07:02:05.530Z,13.75
2018-11-20T07:03:05.540Z,13.75
2018-11-20T07:04:05.562Z,13.70
2018-11-20T07:05:05.577Z,13.77
2018-11-20T07:06:05.589Z,13.82
2018-11-20T07:07:05.654Z,13.77
2018-11-20T07:08:05.781Z,13.87
2018-11-20T07:09:05.641Z,13.82
2018-11-20T07:10:05.729Z,13.88
2018-11-20T07:11:05.673Z,13.89
2018-11-20T07:12:05.697Z,13.97
2018-11-20T07:13:05.712Z,13.92
2018-11-20T07:14:05.726Z,13.88
2018-11-20T07:15:05.809Z,13.99
2018-11-20T07:16:06.142Z,13.96
2018-11-20T07:17:05.783Z,13.95
2018-11-20T07:18:05.796Z,14.02
2018-11-20T07:19:05.813Z,13.89
2018-11-20T07:20:05.833Z,14.06
2018-11-20T07:21:05.841Z,13.91
2018-11-20T07:22:05.861Z,13.96
2018-11-20T07:23:05.881Z,13.95
2018-11-20T07:24:05.898Z,13.88
2018-11-20T07:25:05.917Z,13.85
2018-11-20T07:26:05.930Z,13.89
2018-11-20T07:27:05.945Z,13.88
2018-11-20T07:28:05.965Z,13.85
2018-11-20T07:29:05.973Z,13.84
2018-11-20T07:30:06.065Z,13.84
2018-11-20T07:31:06.057Z,13.69
2018-11-20T07:32:06.024Z,13.79
2018-11-20T07:33:06.049Z,13.78
2018-11-20T07:34:06.065Z,13.70
2018-11-20T07:35:06.075Z,13.78
2018-11-20T07:36:06.173Z,13.67
2018-11-20T07:37:06.364Z,13.66
2018-11-20T07:38:06.130Z,13.84
2018-11-20T07:39:06.145Z,13.69
2018-11-20T07:40:06.161Z,13.63
2018-11-20T07:41:06.180Z,13.63
2018-11-20T07:42:06.197Z,13.70
2018-11-20T07:43:06.216Z,13.64
2018-11-20T07:44:06.375Z,13.67
2018-11-20T07:45:06.258Z,13.60
2018-11-20T07:46:06.265Z,13.64
2018-11-20T07:47:06.285Z,13.70
2018-11-20T07:48:06.297Z,13.82
2018-11-20T07:49:06.321Z,13.77
2018-11-20T07:50:06.333Z,13.69
2018-11-20T07:51:06.353Z,13.88
2018-11-20T07:52:06.380Z,13.87
2018-11-20T07:53:06.381Z,13.95
2018-11-20T07:54:06.397Z,14.18
2018-11-20T07:55:06.476Z,14.33
2018-11-20T07:56:06.559Z,14.54
2018-11-20T07:57:06.477Z,14.75
2018-11-20T07:58:06.473Z,14.88
2018-11-20T07:59:06.480Z,15.06
2018-11-20T08:00:06.502Z,15.10
2018-11-20T08:01:06.513Z,15.38
2018-11-20T08:02:06.575Z,15.69
2018-11-20T08:03:06.601Z,15.84
2018-11-20T08:04:06.577Z,15.92
2018-11-20T08:05:06.589Z,16.00
2018-11-20T08:06:06.605Z,16.20
2018-11-20T08:07:06.614Z,16.42
2018-11-20T08:08:06.637Z,16.31
2018-11-20T08:09:06.699Z,16.15
2018-11-20T08:10:06.682Z,16.53
2018-11-20T08:11:06.693Z,16.85
2018-11-20T08:12:06.715Z,17.04
2018-11-20T08:13:06.725Z,17.19
2018-11-20T08:14:06.746Z,17.03
2018-11-20T08:15:06.815Z,17.44
2018-11-20T08:16:06.882Z,17.48
2018-11-20T08:17:06.800Z,17.44
2018-11-20T08:18:06.816Z,17.71
2018-11-20T08:19:06.840Z,18.15
2018-11-20T08:20:06.857Z,18.58
2018-11-20T08:21:06.917Z,19.08
2018-11-20T08:22:06.901Z,19.37
2018-11-20T08:23:06.912Z,19.96
2018-11-20T08:24:06.932Z,20.06
2018-11-20T08:25:07.003Z,20.26
2018-11-20T08:26:07.162Z,20.20
2018-11-20T08:27:06.984Z,20.31
2018-11-20T08:28:07.009Z,20.11
2018-11-20T08:29:07.021Z,20.36
2018-11-20T08:30:07.053Z,20.43
2018-11-20T08:31:07.153Z,20.66
2018-11-20T08:32:07.081Z,20.72
2018-11-20T08:33:07.144Z,20.82
2018-11-20T08:34:07.196Z,20.67
2018-11-20T08:35:07.281Z,21.14
2018-11-20T08:36:07.157Z,20.84
2018-11-20T08:37:07.259Z,21.09
2018-11-20T08:38:07.231Z,20.33
2018-11-20T08:39:07.225Z,20.85
2018-11-20T08:40:07.241Z,20.91
2018-11-20T08:41:07.265Z,21.07
2018-11-20T08:42:07.298Z,20.97
2018-11-20T08:43:07.302Z,21.10
2018-11-20T08:44:07.390Z,21.44
2018-11-20T08:45:07.399Z,21.75
2018-11-20T08:46:07.364Z,21.65
2018-11-20T08:47:07.526Z,21.59
2018-11-20T08:48:07.494Z,21.62
2018-11-20T08:49:07.419Z,21.64
2018-11-20T08:50:07.458Z,21.53
2018-11-20T08:51:07.463Z,21.61
2018-11-20T08:52:07.493Z,21.82
2018-11-20T08:53:07.511Z,22.09
2018-11-20T08:54:07.535Z,21.52
2018-11-20T08:55:07.554Z,21.46
2018-11-20T08:56:07.577Z,21.40
2018-11-20T08:57:07.593Z,21.37
2018-11-20T08:58:07.607Z,21.58
2018-11-20T08:59:07.625Z,20.20
2018-11-20T09:00:07.651Z,20.23
2018-11-20T09:01:07.676Z,20.06
2018-11-20T09:02:07.794Z,20.80
2018-11-20T09:03:07.754Z,21.43
2018-11-20T09:04:07.734Z,20.87
2018-11-20T09:05:07.758Z,20.70
2018-11-20T09:06:07.777Z,20.24
2018-11-20T09:07:07.794Z,19.83
2018-11-20T09:08:07.863Z,19.40
2018-11-20T09:09:07.841Z,18.67
2018-11-20T09:10:07.940Z,18.23
2018-11-20T09:11:07.884Z,17.96
2018-11-20T09:12:07.897Z,17.68
2018-11-20T09:13:07.921Z,17.66
2018-11-20T09:14:07.937Z,18.81
2018-11-20T09:15:07.964Z,19.96
2018-11-20T09:16:07.978Z,20.67
2018-11-20T09:17:07.998Z,20.55
2018-11-20T09:18:08.024Z,20.92
2018-11-20T09:19:08.085Z,21.16
2018-11-20T09:20:08.114Z,21.10
2018-11-20T09:21:08.105Z,20.69
2018-11-20T09:22:08.105Z,20.87
2018-11-20T09:23:08.120Z,20.84
2018-11-20T09:24:08.160Z,20.61
2018-11-20T09:25:08.181Z,20.16
2018-11-20T09:26:08.174Z,19.22
2018-11-20T09:27:08.201Z,18.66
2018-11-20T09:28:08.365Z,18.20
2018-11-20T09:29:08.248Z,17.56
2018-11-20T09:30:08.254Z,17.48
2018-11-20T09:31:08.357Z,17.30
2018-11-20T09:32:08.300Z,17.12
2018-11-20T09:33:08.323Z,16.98
2018-11-20T09:34:08.364Z,17.03
2018-11-20T09:35:08.515Z,16.91
2018-11-20T09:36:08.377Z,16.67
2018-11-20T09:37:08.397Z,16.60
2018-11-20T09:38:08.413Z,16.61
2018-11-20T09:39:08.433Z,16.68
2018-11-20T09:40:08.454Z,17.11
2018-11-20T09:41:08.476Z,17.86
2018-11-20T09:42:08.487Z,18.94
2018-11-20T09:43:08.503Z,19.65
2018-11-20T09:44:08.531Z,19.96
2018-11-20T09:45:08.554Z,20.76
2018-11-20T09:46:08.564Z,20.64
2018-11-20T09:47:08.739Z,20.18
2018-11-20T09:48:08.603Z,21.03
2018-11-20T09:49:08.631Z,20.66
2018-11-20T09:50:08.642Z,19.92
2018-11-20T09:51:08.662Z,19.14
2018-11-20T09:52:08.698Z,18.70
2018-11-20T09:53:08.697Z,19.80
2018-11-20T09:54:08.757Z,20.47
2018-11-20T09:55:08.746Z,20.66
2018-11-20T09:56:08.758Z,20.67
2018-11-20T09:57:08.775Z,20.69
2018-11-20T09:58:08.798Z,20.47
2018-11-20T09:59:08.869Z,20.39
2018-11-20T10:00:08.886Z,20.64
2018-11-20T10:01:08.850Z,20.95
2018-11-20T10:02:08.870Z,20.48
2018-11-20T10:03:08.891Z,19.76
2018-11-20T10:04:08.916Z,19.39
2018-11-20T10:05:08.933Z,18.81
2018-11-20T10:06:09.026Z,18.55
2018-11-20T10:07:09.048Z,18.20
2018-11-20T10:08:08.986Z,17.72
2018-11-20T10:09:09.010Z,17.40
2018-11-20T10:10:09.039Z,17.28
2018-11-20T10:11:09.046Z,17.16
2018-11-20T10:12:09.064Z,17.16
2018-11-20T10:13:09.083Z,17.25
2018-11-20T10:14:09.265Z,17.11
2018-11-20T10:15:09.226Z,17.21
2018-11-20T10:16:09.142Z,17.22
2018-11-20T10:17:09.160Z,17.19
2018-11-20T10:18:09.179Z,17.04
2018-11-20T10:19:09.196Z,16.98
2018-11-20T10:20:09.215Z,16.68
2018-11-20T10:21:09.233Z,16.49
2018-11-20T10:22:09.403Z,16.41
2018-11-20T10:23:09.274Z,16.45
2018-11-20T10:24:09.289Z,16.14
2018-11-20T10:25:09.348Z,16.14
2018-11-20T10:26:09.534Z,16.15
2018-11-20T10:27:09.351Z,16.49
2018-11-20T10:28:09.374Z,17.46
2018-11-20T10:29:09.456Z,18.25
2018-11-20T10:31:09.423Z,19.48
2018-11-20T10:32:09.441Z,19.86
2018-11-20T10:33:09.460Z,19.58
2018-11-20T10:34:09.502Z,19.10
2018-11-20T10:35:09.547Z,19.63
2018-11-20T10:36:09.515Z,19.26
2018-11-20T10:37:09.539Z,18.67
2018-11-20T10:38:09.551Z,18.33
2018-11-20T10:39:09.575Z,18.02
2018-11-20T10:40:09.586Z,18.52
2018-11-20T10:41:09.624Z,19.54
2018-11-20T10:42:09.624Z,20.31
2018-11-20T10:43:09.647Z,20.61
2018-11-20T10:44:09.664Z,20.70
2018-11-20T10:45:09.683Z,19.63
2018-11-20T10:46:09.767Z,19.08
2018-11-20T10:47:09.718Z,18.75
2018-11-20T10:48:09.742Z,18.26
2018-11-20T10:49:09.756Z,17.96
2018-11-20T10:50:09.776Z,17.70
2018-11-20T10:51:09.859Z,17.52
2018-11-20T10:52:09.819Z,17.38
2018-11-20T10:53:09.835Z,17.25
2018-11-20T10:54:09.857Z,17.16
2018-11-20T10:55:09.870Z,17.07
2018-11-20T10:56:09.898Z,16.94
2018-11-20T10:57:09.915Z,17.54
2018-11-20T10:58:09.987Z,18.69
2018-11-20T10:59:09.943Z,19.91
2018-11-20T11:00:09.980Z,20.55
2018-11-20T11:01:09.983Z,20.61
2018-11-20T11:02:10.005Z,20.72
2018-11-20T11:03:10.028Z,20.35
2018-11-20T11:04:10.055Z,19.63
2018-11-20T11:05:10.179Z,19.14
2018-11-20T11:06:10.138Z,18.75
2018-11-20T11:07:10.539Z,18.63
2018-11-20T11:08:10.228Z,18.42
2018-11-20T11:09:10.135Z,18.03
2018-11-20T11:10:10.158Z,17.93
2018-11-20T11:11:10.170Z,17.92
2018-11-20T11:12:10.298Z,18.29
2018-11-20T11:13:10.216Z,17.99
2018-11-20T11:14:10.235Z,17.70
2018-11-20T11:15:10.264Z,17.46
2018-11-20T11:16:10.269Z,18.47
2018-11-20T11:17:10.282Z,19.07
2018-11-20T11:18:10.322Z,19.83
2018-11-20T11:19:10.323Z,20.62
2018-11-20T11:20:10.349Z,20.85
2018-11-20T11:21:10.473Z,21.01
2018-11-20T11:22:10.381Z,21.58
2018-11-20T11:23:10.402Z,22.33
2018-11-20T11:24:10.429Z,22.49
2018-11-20T11:25:10.440Z,22.27
2018-11-20T11:26:10.462Z,22.42
2018-11-20T11:27:10.481Z,22.20
2018-11-20T11:28:10.495Z,22.45
2018-11-20T11:29:11.527Z,22.51
2018-11-20T11:30:10.542Z,22.92
2018-11-20T11:31:10.562Z,23.22
2018-11-20T11:32:10.601Z,22.65
2018-11-20T11:33:10.594Z,22.75
2018-11-20T11:34:10.615Z,22.42
2018-11-20T11:35:10.637Z,22.52
2018-11-20T11:36:10.653Z,22.30
2018-11-20T11:37:10.678Z,21.98
2018-11-20T11:38:10.773Z,21.07
2018-11-20T11:39:10.717Z,20.59
2018-11-20T11:40:10.738Z,19.98
2018-11-20T11:41:10.755Z,19.77
2018-11-20T11:42:10.777Z,19.63
2018-11-20T11:43:10.799Z,19.13
2018-11-20T11:44:10.823Z,18.75
2018-11-20T11:45:10.837Z,18.42
2018-11-20T11:46:10.862Z,18.17
2018-11-20T11:47:10.880Z,18.18
2018-11-20T11:48:10.915Z,18.00
2018-11-20T11:49:10.936Z,18.62
2018-11-20T11:50:10.933Z,19.10
2018-11-20T11:51:10.957Z,19.26
2018-11-20T11:52:10.971Z,19.13
2018-11-20T11:53:10.996Z,18.70
2018-11-20T11:54:11.013Z,18.47
2018-11-20T11:55:11.086Z,18.29
2018-11-20T11:56:11.054Z,18.17
2018-11-20T11:57:11.075Z,17.87
2018-11-20T11:58:11.098Z,17.75
2018-11-20T11:59:11.106Z,17.64
2018-11-20T12:00:11.130Z,17.40
2018-11-20T12:01:11.150Z,17.30
2018-11-20T12:03:11.191Z,17.70
2018-11-20T12:04:11.210Z,17.70
2018-11-20T12:05:11.227Z,18.18
2018-11-20T12:06:11.241Z,19.00
2018-11-20T12:07:11.263Z,18.85
2018-11-20T12:08:11.279Z,18.73
2018-11-20T12:09:11.299Z,18.29
2018-11-20T12:10:11.319Z,18.29
2018-11-20T12:11:11.340Z,18.32
2018-11-20T12:12:11.358Z,19.18
2018-11-20T12:14:11.398Z,20.33
2018-11-20T12:15:11.414Z,20.59
2018-11-20T12:16:11.434Z,21.03
2018-11-20T12:17:11.448Z,21.52
2018-11-20T12:18:11.514Z,21.82
2018-11-20T12:19:11.490Z,21.50
2018-11-20T12:20:11.507Z,21.17
2018-11-20T12:21:11.525Z,20.98
2018-11-20T12:22:11.554Z,20.84
2018-11-20T12:23:11.566Z,21.40
2018-11-20T12:24:11.585Z,20.88
2018-11-20T12:25:11.604Z,20.94
2018-11-20T12:26:11.626Z,20.64
2018-11-20T12:27:11.638Z,20.16
2018-11-20T12:28:11.660Z,20.13
2018-11-20T12:29:11.682Z,19.77
2018-11-20T12:30:13.444Z,19.23
2018-11-20T12:31:11.878Z,19.28
2018-11-20T12:32:11.742Z,19.16
2018-11-20T12:33:11.766Z,19.18
2018-11-20T12:34:11.782Z,18.94
2018-11-20T12:35:13.642Z,18.88
2018-11-20T12:36:12.329Z,18.72
2018-11-20T12:37:11.852Z,18.92
2018-11-20T12:38:11.861Z,19.58
2018-11-20T12:39:11.880Z,19.74
2018-11-20T12:40:11.897Z,19.32
2018-11-20T12:41:11.923Z,19.13
2018-11-20T12:42:11.941Z,18.90
2018-11-20T12:43:11.950Z,18.65
2018-11-20T12:44:11.973Z,18.45
2018-11-20T12:45:13.540Z,18.29
2018-11-20T12:46:13.184Z,18.11
2018-11-20T12:47:15.086Z,17.90
2018-11-20T12:48:12.043Z,17.93
2018-11-20T12:49:12.064Z,17.77
2018-11-20T12:50:12.097Z,18.05
2018-11-20T12:51:12.109Z,17.92
2018-11-20T12:52:12.181Z,17.96
2018-11-20T12:53:12.143Z,18.15
2018-11-20T12:54:14.785Z,18.14
2018-11-20T12:55:12.188Z,17.90
2018-11-20T12:56:13.920Z,17.68